sensor_id;sensor_type;location;lat;lon;timestamp;P1;durP1;ratioP1;P2;durP2;ratioP2
36931;SDS011;22847;42.654;23.370;2023-05-07T00:00:08;7.78;;;4.70;;
36931;SDS011;22847;42.654;23.370;2023-05-07T00:02:34;7.50;;;4.60;;
36931;SDS011;22847;42.654;23.370;2023-05-07T00:05:00;9.43;;;4.50;;
36931;SDS011;22847;42.654;23.370;2023-05-07T00:07:27;11.07;;;4.63;;
36931;SDS011;22847;42.654;23.370;2023-05-07T00:09:52;6.88;;;4.18;;
36931;SDS011;22847;42.654;23.370;2023-05-07T00:12:18;8.77;;;4.85;;
36931;SDS011;22847;42.654;23.370;2023-05-07T00:14:43;8.98;;;5.05;;
36931;SDS011;22847;42.654;23.370;2023-05-07T00:17:09;6.22;;;4.93;;
36931;SDS011;22847;42.654;23.370;2023-05-07T00:19:34;8.10;;;4.38;;
36931;SDS011;22847;42.654;23.370;2023-05-07T00:22:00;10.95;;;5.63;;
36931;SDS011;22847;42.654;23.370;2023-05-07T00:24:25;8.95;;;5.53;;
36931;SDS011;22847;42.654;23.370;2023-05-07T00:26:51;8.60;;;5.30;;
36931;SDS011;22847;42.654;23.370;2023-05-07T00:29:17;12.00;;;5.22;;
36931;SDS011;22847;42.654;23.370;2023-05-07T00:31:43;10.65;;;5.93;;
36931;SDS011;22847;42.654;23.370;2023-05-07T00:34:08;12.80;;;6.32;;
36931;SDS011;22847;42.654;23.370;2023-05-07T00:36:34;10.32;;;6.40;;
36931;SDS011;22847;42.654;23.370;2023-05-07T00:38:59;9.55;;;5.57;;
36931;SDS011;22847;42.654;23.370;2023-05-07T00:41:28;13.10;;;6.75;;
36931;SDS011;22847;42.654;23.370;2023-05-07T00:43:53;8.48;;;5.35;;
36931;SDS011;22847;42.654;23.370;2023-05-07T00:46:20;7.30;;;4.85;;
36931;SDS011;22847;42.654;23.370;2023-05-07T00:48:46;10.75;;;6.00;;
36931;SDS011;22847;42.654;23.370;2023-05-07T00:51:12;10.60;;;6.20;;
36931;SDS011;22847;42.654;23.370;2023-05-07T00:53:38;8.18;;;5.60;;
36931;SDS011;22847;42.654;23.370;2023-05-07T00:56:04;13.05;;;5.93;;
36931;SDS011;22847;42.654;23.370;2023-05-07T00:58:31;14.82;;;7.28;;
36931;SDS011;22847;42.654;23.370;2023-05-07T01:00:57;9.07;;;5.43;;
36931;SDS011;22847;42.654;23.370;2023-05-07T01:03:23;11.70;;;5.20;;
36931;SDS011;22847;42.654;23.370;2023-05-07T01:05:48;8.15;;;4.43;;
36931;SDS011;22847;42.654;23.370;2023-05-07T01:08:16;8.60;;;5.22;;
36931;SDS011;22847;42.654;23.370;2023-05-07T01:10:42;6.75;;;4.57;;
36931;SDS011;22847;42.654;23.370;2023-05-07T01:13:09;10.80;;;5.20;;
36931;SDS011;22847;42.654;23.370;2023-05-07T01:15:36;9.20;;;4.53;;
36931;SDS011;22847;42.654;23.370;2023-05-07T01:18:02;12.63;;;4.95;;
36931;SDS011;22847;42.654;23.370;2023-05-07T01:20:28;7.53;;;4.50;;
36931;SDS011;22847;42.654;23.370;2023-05-07T01:22:53;8.98;;;4.90;;
36931;SDS011;22847;42.654;23.370;2023-05-07T01:25:20;6.85;;;4.70;;
36931;SDS011;22847;42.654;23.370;2023-05-07T01:27:46;6.43;;;5.05;;
36931;SDS011;22847;42.654;23.370;2023-05-07T01:30:11;8.68;;;5.32;;
36931;SDS011;22847;42.654;23.370;2023-05-07T01:32:42;13.10;;;5.70;;
36931;SDS011;22847;42.654;23.370;2023-05-07T01:35:12;9.05;;;5.50;;
36931;SDS011;22847;42.654;23.370;2023-05-07T01:37:43;8.02;;;5.03;;
36931;SDS011;22847;42.654;23.370;2023-05-07T01:40:10;11.85;;;6.05;;
36931;SDS011;22847;42.654;23.370;2023-05-07T01:42:35;6.65;;;5.25;;
36931;SDS011;22847;42.654;23.370;2023-05-07T01:45:01;8.70;;;5.22;;
36931;SDS011;22847;42.654;23.370;2023-05-07T01:47:27;8.68;;;5.70;;
36931;SDS011;22847;42.654;23.370;2023-05-07T01:49:54;8.27;;;6.07;;
36931;SDS011;22847;42.654;23.370;2023-05-07T01:52:20;12.18;;;7.45;;
36931;SDS011;22847;42.654;23.370;2023-05-07T01:54:46;11.60;;;7.63;;
36931;SDS011;22847;42.654;23.370;2023-05-07T01:57:11;10.63;;;7.10;;
36931;SDS011;22847;42.654;23.370;2023-05-07T01:59:37;12.57;;;6.97;;
36931;SDS011;22847;42.654;23.370;2023-05-07T02:02:02;14.70;;;8.55;;
36931;SDS011;22847;42.654;23.370;2023-05-07T02:04:27;10.95;;;7.32;;
36931;SDS011;22847;42.654;23.370;2023-05-07T02:06:53;15.20;;;8.38;;
36931;SDS011;22847;42.654;23.370;2023-05-07T02:09:18;11.18;;;7.68;;
36931;SDS011;22847;42.654;23.370;2023-05-07T02:11:44;12.02;;;8.05;;
36931;SDS011;22847;42.654;23.370;2023-05-07T02:14:09;11.73;;;7.82;;
36931;SDS011;22847;42.654;23.370;2023-05-07T02:16:35;11.88;;;8.43;;
36931;SDS011;22847;42.654;23.370;2023-05-07T02:19:00;10.68;;;8.07;;
36931;SDS011;22847;42.654;23.370;2023-05-07T02:21:26;12.80;;;8.55;;
36931;SDS011;22847;42.654;23.370;2023-05-07T02:23:51;11.20;;;8.02;;
36931;SDS011;22847;42.654;23.370;2023-05-07T02:26:16;14.15;;;8.07;;
36931;SDS011;22847;42.654;23.370;2023-05-07T02:28:42;12.75;;;7.97;;
36931;SDS011;22847;42.654;23.370;2023-05-07T02:31:07;11.98;;;8.43;;
36931;SDS011;22847;42.654;23.370;2023-05-07T02:33:33;15.85;;;8.45;;
36931;SDS011;22847;42.654;23.370;2023-05-07T02:36:09;12.32;;;8.68;;
36931;SDS011;22847;42.654;23.370;2023-05-07T02:38:35;12.13;;;9.00;;
36931;SDS011;22847;42.654;23.370;2023-05-07T02:41:00;12.52;;;8.73;;
36931;SDS011;22847;42.654;23.370;2023-05-07T02:43:26;12.77;;;8.32;;
36931;SDS011;22847;42.654;23.370;2023-05-07T02:46:04;11.63;;;8.52;;
36931;SDS011;22847;42.654;23.370;2023-05-07T02:48:30;13.30;;;9.05;;
36931;SDS011;22847;42.654;23.370;2023-05-07T02:50:56;15.57;;;9.18;;
36931;SDS011;22847;42.654;23.370;2023-05-07T02:53:22;16.83;;;9.23;;
36931;SDS011;22847;42.654;23.370;2023-05-07T02:55:47;13.30;;;9.27;;
36931;SDS011;22847;42.654;23.370;2023-05-07T02:58:13;14.27;;;9.68;;
36931;SDS011;22847;42.654;23.370;2023-05-07T03:00:39;17.65;;;9.88;;
36931;SDS011;22847;42.654;23.370;2023-05-07T03:03:05;17.75;;;9.95;;
36931;SDS011;22847;42.654;23.370;2023-05-07T03:05:30;15.48;;;10.57;;
36931;SDS011;22847;42.654;23.370;2023-05-07T03:07:56;17.20;;;10.57;;
36931;SDS011;22847;42.654;23.370;2023-05-07T03:10:21;15.48;;;11.02;;
36931;SDS011;22847;42.654;23.370;2023-05-07T03:12:46;19.45;;;10.63;;
36931;SDS011;22847;42.654;23.370;2023-05-07T03:15:12;16.13;;;11.38;;
36931;SDS011;22847;42.654;23.370;2023-05-07T03:17:37;16.85;;;11.55;;
36931;SDS011;22847;42.654;23.370;2023-05-07T03:20:03;18.30;;;11.38;;
36931;SDS011;22847;42.654;23.370;2023-05-07T03:22:29;21.63;;;11.93;;
36931;SDS011;22847;42.654;23.370;2023-05-07T03:24:55;17.02;;;11.50;;
36931;SDS011;22847;42.654;23.370;2023-05-07T03:27:20;21.20;;;11.77;;
36931;SDS011;22847;42.654;23.370;2023-05-07T03:29:45;18.27;;;12.43;;
36931;SDS011;22847;42.654;23.370;2023-05-07T03:32:11;22.60;;;12.93;;
36931;SDS011;22847;42.654;23.370;2023-05-07T03:34:36;19.55;;;12.15;;
36931;SDS011;22847;42.654;23.370;2023-05-07T03:37:02;21.10;;;12.82;;
36931;SDS011;22847;42.654;23.370;2023-05-07T03:39:27;26.42;;;13.90;;
36931;SDS011;22847;42.654;23.370;2023-05-07T03:41:52;19.70;;;13.70;;
36931;SDS011;22847;42.654;23.370;2023-05-07T03:44:18;21.40;;;13.40;;
36931;SDS011;22847;42.654;23.370;2023-05-07T03:46:43;21.98;;;13.73;;
36931;SDS011;22847;42.654;23.370;2023-05-07T03:49:09;23.73;;;14.30;;
36931;SDS011;22847;42.654;23.370;2023-05-07T03:51:34;22.23;;;14.98;;
36931;SDS011;22847;42.654;23.370;2023-05-07T03:54:01;25.30;;;13.77;;
36931;SDS011;22847;42.654;23.370;2023-05-07T03:56:26;18.27;;;11.98;;
36931;SDS011;22847;42.654;23.370;2023-05-07T03:58:52;18.60;;;10.90;;
36931;SDS011;22847;42.654;23.370;2023-05-07T04:01:18;18.95;;;11.45;;
36931;SDS011;22847;42.654;23.370;2023-05-07T04:03:43;16.83;;;10.02;;
36931;SDS011;22847;42.654;23.370;2023-05-07T04:06:09;15.68;;;10.02;;
36931;SDS011;22847;42.654;23.370;2023-05-07T04:08:35;15.18;;;8.80;;
36931;SDS011;22847;42.654;23.370;2023-05-07T04:11:01;12.55;;;8.95;;
36931;SDS011;22847;42.654;23.370;2023-05-07T04:13:26;18.67;;;10.52;;
36931;SDS011;22847;42.654;23.370;2023-05-07T04:15:52;15.48;;;8.45;;
36931;SDS011;22847;42.654;23.370;2023-05-07T04:18:18;18.45;;;9.63;;
36931;SDS011;22847;42.654;23.370;2023-05-07T04:20:45;11.10;;;8.30;;
36931;SDS011;22847;42.654;23.370;2023-05-07T04:23:10;13.57;;;8.35;;
36931;SDS011;22847;42.654;23.370;2023-05-07T04:25:35;11.57;;;7.80;;
36931;SDS011;22847;42.654;23.370;2023-05-07T04:28:01;9.93;;;7.45;;
36931;SDS011;22847;42.654;23.370;2023-05-07T04:30:26;13.38;;;7.97;;
36931;SDS011;22847;42.654;23.370;2023-05-07T04:32:52;10.70;;;7.97;;
36931;SDS011;22847;42.654;23.370;2023-05-07T04:35:21;11.82;;;8.35;;
36931;SDS011;22847;42.654;23.370;2023-05-07T04:37:46;12.90;;;7.70;;
36931;SDS011;22847;42.654;23.370;2023-05-07T04:40:12;10.57;;;7.18;;
36931;SDS011;22847;42.654;23.370;2023-05-07T04:42:38;16.83;;;8.32;;
36931;SDS011;22847;42.654;23.370;2023-05-07T04:45:04;11.88;;;8.35;;
36931;SDS011;22847;42.654;23.370;2023-05-07T04:47:30;11.85;;;8.52;;
36931;SDS011;22847;42.654;23.370;2023-05-07T04:49:55;11.95;;;7.90;;
36931;SDS011;22847;42.654;23.370;2023-05-07T04:52:20;15.02;;;9.10;;
36931;SDS011;22847;42.654;23.370;2023-05-07T04:54:46;12.55;;;8.50;;
36931;SDS011;22847;42.654;23.370;2023-05-07T04:57:11;13.63;;;8.40;;
36931;SDS011;22847;42.654;23.370;2023-05-07T04:59:37;11.45;;;8.35;;
36931;SDS011;22847;42.654;23.370;2023-05-07T05:02:02;15.52;;;8.45;;
36931;SDS011;22847;42.654;23.370;2023-05-07T05:04:29;15.23;;;9.05;;
36931;SDS011;22847;42.654;23.370;2023-05-07T05:06:55;12.35;;;8.60;;
36931;SDS011;22847;42.654;23.370;2023-05-07T05:09:20;14.63;;;9.43;;
36931;SDS011;22847;42.654;23.370;2023-05-07T05:11:45;14.98;;;9.45;;
36931;SDS011;22847;42.654;23.370;2023-05-07T05:14:11;12.68;;;8.65;;
36931;SDS011;22847;42.654;23.370;2023-05-07T05:16:36;14.88;;;9.50;;
36931;SDS011;22847;42.654;23.370;2023-05-07T05:19:02;16.65;;;8.55;;
36931;SDS011;22847;42.654;23.370;2023-05-07T05:21:27;16.40;;;9.00;;
36931;SDS011;22847;42.654;23.370;2023-05-07T05:23:54;14.70;;;9.05;;
36931;SDS011;22847;42.654;23.370;2023-05-07T05:26:20;13.82;;;8.98;;
36931;SDS011;22847;42.654;23.370;2023-05-07T05:28:48;12.20;;;8.30;;
36931;SDS011;22847;42.654;23.370;2023-05-07T05:31:14;16.75;;;7.57;;
36931;SDS011;22847;42.654;23.370;2023-05-07T05:33:40;13.32;;;9.50;;
36931;SDS011;22847;42.654;23.370;2023-05-07T05:36:06;19.60;;;11.25;;
36931;SDS011;22847;42.654;23.370;2023-05-07T05:38:34;17.60;;;11.98;;
36931;SDS011;22847;42.654;23.370;2023-05-07T05:40:59;18.60;;;11.80;;
36931;SDS011;22847;42.654;23.370;2023-05-07T05:43:24;21.33;;;11.88;;
36931;SDS011;22847;42.654;23.370;2023-05-07T05:45:50;15.27;;;10.32;;
36931;SDS011;22847;42.654;23.370;2023-05-07T05:48:15;18.13;;;11.07;;
36931;SDS011;22847;42.654;23.370;2023-05-07T05:50:41;19.13;;;11.52;;
36931;SDS011;22847;42.654;23.370;2023-05-07T05:53:07;15.50;;;10.55;;
36931;SDS011;22847;42.654;23.370;2023-05-07T05:55:33;15.70;;;11.32;;
36931;SDS011;22847;42.654;23.370;2023-05-07T05:57:59;17.70;;;10.25;;
36931;SDS011;22847;42.654;23.370;2023-05-07T06:00:25;16.40;;;9.88;;
36931;SDS011;22847;42.654;23.370;2023-05-07T06:02:51;15.02;;;9.45;;
36931;SDS011;22847;42.654;23.370;2023-05-07T06:05:17;18.13;;;9.75;;
36931;SDS011;22847;42.654;23.370;2023-05-07T06:07:42;12.80;;;9.48;;
36931;SDS011;22847;42.654;23.370;2023-05-07T06:10:08;15.50;;;8.75;;
36931;SDS011;22847;42.654;23.370;2023-05-07T06:12:33;15.05;;;10.43;;
36931;SDS011;22847;42.654;23.370;2023-05-07T06:14:59;13.82;;;8.75;;
36931;SDS011;22847;42.654;23.370;2023-05-07T06:17:25;16.60;;;9.93;;
36931;SDS011;22847;42.654;23.370;2023-05-07T06:19:50;14.45;;;10.23;;
36931;SDS011;22847;42.654;23.370;2023-05-07T06:22:16;11.98;;;9.55;;
36931;SDS011;22847;42.654;23.370;2023-05-07T06:24:41;16.10;;;10.32;;
36931;SDS011;22847;42.654;23.370;2023-05-07T06:27:07;15.48;;;9.68;;
36931;SDS011;22847;42.654;23.370;2023-05-07T06:29:32;12.18;;;8.48;;
36931;SDS011;22847;42.654;23.370;2023-05-07T06:32:08;12.40;;;8.93;;
36931;SDS011;22847;42.654;23.370;2023-05-07T06:34:38;14.18;;;9.60;;
36931;SDS011;22847;42.654;23.370;2023-05-07T06:37:04;13.75;;;8.95;;
36931;SDS011;22847;42.654;23.370;2023-05-07T06:39:30;12.90;;;8.82;;
36931;SDS011;22847;42.654;23.370;2023-05-07T06:41:55;12.15;;;9.23;;
36931;SDS011;22847;42.654;23.370;2023-05-07T06:44:21;13.18;;;8.70;;
36931;SDS011;22847;42.654;23.370;2023-05-07T06:46:47;12.00;;;8.88;;
36931;SDS011;22847;42.654;23.370;2023-05-07T06:49:13;14.55;;;9.57;;
36931;SDS011;22847;42.654;23.370;2023-05-07T06:51:38;14.48;;;9.68;;
36931;SDS011;22847;42.654;23.370;2023-05-07T06:54:04;13.63;;;9.23;;
36931;SDS011;22847;42.654;23.370;2023-05-07T06:56:30;14.80;;;8.45;;
36931;SDS011;22847;42.654;23.370;2023-05-07T06:58:56;13.00;;;8.88;;
36931;SDS011;22847;42.654;23.370;2023-05-07T07:01:21;14.43;;;9.23;;
36931;SDS011;22847;42.654;23.370;2023-05-07T07:03:47;15.38;;;8.48;;
36931;SDS011;22847;42.654;23.370;2023-05-07T07:06:12;13.65;;;8.85;;
36931;SDS011;22847;42.654;23.370;2023-05-07T07:08:38;14.68;;;8.77;;
36931;SDS011;22847;42.654;23.370;2023-05-07T07:11:04;15.48;;;9.18;;
36931;SDS011;22847;42.654;23.370;2023-05-07T07:13:30;17.77;;;9.77;;
36931;SDS011;22847;42.654;23.370;2023-05-07T07:15:55;11.10;;;7.55;;
36931;SDS011;22847;42.654;23.370;2023-05-07T07:18:21;15.10;;;8.05;;
36931;SDS011;22847;42.654;23.370;2023-05-07T07:20:46;13.43;;;8.27;;
36931;SDS011;22847;42.654;23.370;2023-05-07T07:23:12;20.00;;;8.18;;
36931;SDS011;22847;42.654;23.370;2023-05-07T07:25:37;12.73;;;8.82;;
36931;SDS011;22847;42.654;23.370;2023-05-07T07:28:03;12.35;;;8.18;;
36931;SDS011;22847;42.654;23.370;2023-05-07T07:30:28;11.45;;;7.18;;
36931;SDS011;22847;42.654;23.370;2023-05-07T07:32:54;24.77;;;8.05;;
36931;SDS011;22847;42.654;23.370;2023-05-07T07:35:21;12.27;;;7.05;;
36931;SDS011;22847;42.654;23.370;2023-05-07T07:37:46;10.95;;;6.93;;
36931;SDS011;22847;42.654;23.370;2023-05-07T07:40:14;11.20;;;6.68;;
36931;SDS011;22847;42.654;23.370;2023-05-07T07:42:40;13.90;;;7.00;;
36931;SDS011;22847;42.654;23.370;2023-05-07T07:45:05;10.05;;;6.40;;
36931;SDS011;22847;42.654;23.370;2023-05-07T07:47:31;11.40;;;7.00;;
36931;SDS011;22847;42.654;23.370;2023-05-07T07:49:57;13.75;;;8.10;;
36931;SDS011;22847;42.654;23.370;2023-05-07T07:52:22;15.02;;;8.05;;
36931;SDS011;22847;42.654;23.370;2023-05-07T07:54:47;12.05;;;8.20;;
36931;SDS011;22847;42.654;23.370;2023-05-07T07:57:13;11.65;;;7.55;;
36931;SDS011;22847;42.654;23.370;2023-05-07T07:59:38;13.48;;;7.60;;
36931;SDS011;22847;42.654;23.370;2023-05-07T08:02:04;12.95;;;7.32;;
36931;SDS011;22847;42.654;23.370;2023-05-07T08:04:30;12.68;;;7.85;;
36931;SDS011;22847;42.654;23.370;2023-05-07T08:06:58;12.15;;;7.32;;
36931;SDS011;22847;42.654;23.370;2023-05-07T08:09:23;14.48;;;7.45;;
36931;SDS011;22847;42.654;23.370;2023-05-07T08:11:48;14.10;;;10.32;;
36931;SDS011;22847;42.654;23.370;2023-05-07T08:14:14;16.95;;;10.20;;
36931;SDS011;22847;42.654;23.370;2023-05-07T08:16:40;14.13;;;8.57;;
36931;SDS011;22847;42.654;23.370;2023-05-07T08:19:06;13.48;;;8.02;;
36931;SDS011;22847;42.654;23.370;2023-05-07T08:21:31;11.55;;;8.30;;
36931;SDS011;22847;42.654;23.370;2023-05-07T08:23:57;13.60;;;7.40;;
36931;SDS011;22847;42.654;23.370;2023-05-07T08:26:23;11.15;;;7.88;;
36931;SDS011;22847;42.654;23.370;2023-05-07T08:28:48;17.55;;;7.75;;
36931;SDS011;22847;42.654;23.370;2023-05-07T08:31:13;15.52;;;8.68;;
36931;SDS011;22847;42.654;23.370;2023-05-07T08:33:39;15.77;;;8.38;;
36931;SDS011;22847;42.654;23.370;2023-05-07T08:36:05;19.48;;;8.82;;
36931;SDS011;22847;42.654;23.370;2023-05-07T08:38:30;11.73;;;9.07;;
36931;SDS011;22847;42.654;23.370;2023-05-07T08:40:56;18.83;;;8.98;;
36931;SDS011;22847;42.654;23.370;2023-05-07T08:43:21;11.00;;;7.80;;
36931;SDS011;22847;42.654;23.370;2023-05-07T08:45:53;16.27;;;8.30;;
36931;SDS011;22847;42.654;23.370;2023-05-07T08:48:21;13.18;;;7.57;;
36931;SDS011;22847;42.654;23.370;2023-05-07T08:50:50;15.80;;;7.43;;
36931;SDS011;22847;42.654;23.370;2023-05-07T08:53:16;13.20;;;7.38;;
36931;SDS011;22847;42.654;23.370;2023-05-07T08:55:42;11.57;;;5.95;;
36931;SDS011;22847;42.654;23.370;2023-05-07T08:58:08;7.85;;;5.60;;
36931;SDS011;22847;42.654;23.370;2023-05-07T09:00:33;7.53;;;4.95;;
36931;SDS011;22847;42.654;23.370;2023-05-07T09:03:01;7.65;;;4.68;;
36931;SDS011;22847;42.654;23.370;2023-05-07T09:05:26;7.50;;;4.13;;
36931;SDS011;22847;42.654;23.370;2023-05-07T09:07:52;6.85;;;5.00;;
36931;SDS011;22847;42.654;23.370;2023-05-07T09:10:17;7.65;;;5.70;;
36931;SDS011;22847;42.654;23.370;2023-05-07T09:12:43;18.85;;;10.48;;
36931;SDS011;22847;42.654;23.370;2023-05-07T09:15:08;16.50;;;10.07;;
36931;SDS011;22847;42.654;23.370;2023-05-07T09:17:34;31.65;;;17.65;;
36931;SDS011;22847;42.654;23.370;2023-05-07T09:20:03;11.15;;;6.15;;
36931;SDS011;22847;42.654;23.370;2023-05-07T09:22:33;6.28;;;4.60;;
36931;SDS011;22847;42.654;23.370;2023-05-07T09:24:58;11.18;;;5.30;;
36931;SDS011;22847;42.654;23.370;2023-05-07T09:27:24;12.13;;;5.35;;
36931;SDS011;22847;42.654;23.370;2023-05-07T09:29:50;9.82;;;5.88;;
36931;SDS011;22847;42.654;23.370;2023-05-07T09:32:16;11.57;;;5.07;;
36931;SDS011;22847;42.654;23.370;2023-05-07T09:34:42;9.60;;;5.13;;
36931;SDS011;22847;42.654;23.370;2023-05-07T09:37:07;6.15;;;4.75;;
36931;SDS011;22847;42.654;23.370;2023-05-07T09:39:42;8.35;;;5.38;;
36931;SDS011;22847;42.654;23.370;2023-05-07T09:42:09;8.68;;;5.05;;
36931;SDS011;22847;42.654;23.370;2023-05-07T09:44:36;5.63;;;4.90;;
36931;SDS011;22847;42.654;23.370;2023-05-07T09:47:04;6.57;;;5.00;;
36931;SDS011;22847;42.654;23.370;2023-05-07T09:49:30;8.38;;;5.15;;
36931;SDS011;22847;42.654;23.370;2023-05-07T09:52:00;7.28;;;5.30;;
36931;SDS011;22847;42.654;23.370;2023-05-07T09:54:26;10.20;;;5.00;;
36931;SDS011;22847;42.654;23.370;2023-05-07T09:56:56;6.43;;;4.45;;
36931;SDS011;22847;42.654;23.370;2023-05-07T09:59:22;6.82;;;4.82;;
36931;SDS011;22847;42.654;23.370;2023-05-07T10:01:47;8.20;;;4.13;;
36931;SDS011;22847;42.654;23.370;2023-05-07T10:04:14;7.38;;;5.28;;
36931;SDS011;22847;42.654;23.370;2023-05-07T10:06:39;9.75;;;5.15;;
36931;SDS011;22847;42.654;23.370;2023-05-07T10:09:06;5.18;;;4.45;;
36931;SDS011;22847;42.654;23.370;2023-05-07T10:11:32;5.95;;;4.10;;
36931;SDS011;22847;42.654;23.370;2023-05-07T10:13:59;6.10;;;4.15;;
36931;SDS011;22847;42.654;23.370;2023-05-07T10:16:27;7.40;;;3.95;;
36931;SDS011;22847;42.654;23.370;2023-05-07T10:18:55;6.40;;;3.75;;
36931;SDS011;22847;42.654;23.370;2023-05-07T10:21:21;8.18;;;3.72;;
36931;SDS011;22847;42.654;23.370;2023-05-07T10:23:58;5.72;;;3.58;;
36931;SDS011;22847;42.654;23.370;2023-05-07T10:26:28;6.43;;;3.80;;
36931;SDS011;22847;42.654;23.370;2023-05-07T10:28:58;11.82;;;4.80;;
36931;SDS011;22847;42.654;23.370;2023-05-07T10:34:16;5.47;;;4.25;;
36931;SDS011;22847;42.654;23.370;2023-05-07T10:36:47;7.60;;;4.28;;
36931;SDS011;22847;42.654;23.370;2023-05-07T10:39:13;8.88;;;4.43;;
36931;SDS011;22847;42.654;23.370;2023-05-07T10:41:38;6.75;;;3.97;;
36931;SDS011;22847;42.654;23.370;2023-05-07T10:44:04;7.85;;;3.95;;
36931;SDS011;22847;42.654;23.370;2023-05-07T10:46:30;6.55;;;3.67;;
36931;SDS011;22847;42.654;23.370;2023-05-07T10:51:31;6.47;;;3.80;;
36931;SDS011;22847;42.654;23.370;2023-05-07T11:01:58;10.23;;;4.20;;
36931;SDS011;22847;42.654;23.370;2023-05-07T11:04:24;5.80;;;3.97;;
36931;SDS011;22847;42.654;23.370;2023-05-07T11:15:02;6.45;;;3.50;;
36931;SDS011;22847;42.654;23.370;2023-05-07T11:17:29;5.97;;;4.35;;
36931;SDS011;22847;42.654;23.370;2023-05-07T11:19:57;8.85;;;4.50;;
36931;SDS011;22847;42.654;23.370;2023-05-07T11:25:05;8.35;;;4.10;;
36931;SDS011;22847;42.654;23.370;2023-05-07T11:27:31;13.07;;;4.18;;
36931;SDS011;22847;42.654;23.370;2023-05-07T11:29:57;4.97;;;3.90;;
36931;SDS011;22847;42.654;23.370;2023-05-07T11:34:52;5.45;;;4.47;;
36931;SDS011;22847;42.654;23.370;2023-05-07T11:37:19;5.72;;;4.25;;
36931;SDS011;22847;42.654;23.370;2023-05-07T11:39:45;6.10;;;3.92;;
36931;SDS011;22847;42.654;23.370;2023-05-07T11:42:27;8.65;;;4.25;;
36931;SDS011;22847;42.654;23.370;2023-05-07T11:44:53;4.72;;;4.10;;
36931;SDS011;22847;42.654;23.370;2023-05-07T11:47:19;8.02;;;4.18;;
36931;SDS011;22847;42.654;23.370;2023-05-07T11:49:48;7.95;;;4.45;;
36931;SDS011;22847;42.654;23.370;2023-05-07T11:52:15;8.65;;;4.65;;
36931;SDS011;22847;42.654;23.370;2023-05-07T11:54:43;9.70;;;4.28;;
36931;SDS011;22847;42.654;23.370;2023-05-07T11:57:14;7.93;;;4.72;;
36931;SDS011;22847;42.654;23.370;2023-05-07T11:59:40;8.48;;;4.10;;
36931;SDS011;22847;42.654;23.370;2023-05-07T12:02:06;4.97;;;3.85;;
36931;SDS011;22847;42.654;23.370;2023-05-07T12:04:32;6.82;;;4.80;;
36931;SDS011;22847;42.654;23.370;2023-05-07T12:06:57;6.88;;;3.60;;
36931;SDS011;22847;42.654;23.370;2023-05-07T12:09:23;8.77;;;4.05;;
36931;SDS011;22847;42.654;23.370;2023-05-07T12:11:48;6.93;;;3.88;;
36931;SDS011;22847;42.654;23.370;2023-05-07T12:14:14;7.15;;;4.13;;
36931;SDS011;22847;42.654;23.370;2023-05-07T12:16:41;7.38;;;4.30;;
36931;SDS011;22847;42.654;23.370;2023-05-07T12:19:06;7.32;;;4.47;;
36931;SDS011;22847;42.654;23.370;2023-05-07T12:21:37;5.00;;;4.28;;
36931;SDS011;22847;42.654;23.370;2023-05-07T12:24:03;15.40;;;4.55;;
36931;SDS011;22847;42.654;23.370;2023-05-07T12:26:29;7.10;;;3.85;;
36931;SDS011;22847;42.654;23.370;2023-05-07T12:28:54;5.45;;;4.43;;
36931;SDS011;22847;42.654;23.370;2023-05-07T12:31:22;5.28;;;4.05;;
36931;SDS011;22847;42.654;23.370;2023-05-07T12:33:47;6.53;;;4.15;;
36931;SDS011;22847;42.654;23.370;2023-05-07T12:36:13;9.75;;;4.55;;
36931;SDS011;22847;42.654;23.370;2023-05-07T12:38:38;6.20;;;4.30;;
36931;SDS011;22847;42.654;23.370;2023-05-07T12:41:06;6.03;;;4.18;;
36931;SDS011;22847;42.654;23.370;2023-05-07T12:43:33;7.80;;;4.22;;
36931;SDS011;22847;42.654;23.370;2023-05-07T12:46:00;8.18;;;4.13;;
36931;SDS011;22847;42.654;23.370;2023-05-07T12:48:28;8.10;;;3.95;;
36931;SDS011;22847;42.654;23.370;2023-05-07T12:50:54;13.20;;;4.25;;
36931;SDS011;22847;42.654;23.370;2023-05-07T12:53:21;9.35;;;4.10;;
36931;SDS011;22847;42.654;23.370;2023-05-07T12:55:49;7.15;;;4.18;;
36931;SDS011;22847;42.654;23.370;2023-05-07T12:58:16;7.28;;;4.10;;
36931;SDS011;22847;42.654;23.370;2023-05-07T13:00:43;4.95;;;3.28;;
36931;SDS011;22847;42.654;23.370;2023-05-07T13:03:09;5.07;;;3.30;;
36931;SDS011;22847;42.654;23.370;2023-05-07T13:05:34;3.63;;;2.70;;
36931;SDS011;22847;42.654;23.370;2023-05-07T13:08:00;5.55;;;2.95;;
36931;SDS011;22847;42.654;23.370;2023-05-07T13:10:26;7.65;;;3.17;;
36931;SDS011;22847;42.654;23.370;2023-05-07T13:12:52;4.13;;;3.22;;
36931;SDS011;22847;42.654;23.370;2023-05-07T13:15:18;4.13;;;2.97;;
36931;SDS011;22847;42.654;23.370;2023-05-07T13:17:43;5.68;;;2.95;;
36931;SDS011;22847;42.654;23.370;2023-05-07T13:20:09;3.45;;;2.63;;
36931;SDS011;22847;42.654;23.370;2023-05-07T13:22:36;2.60;;;2.40;;
36931;SDS011;22847;42.654;23.370;2023-05-07T13:25:01;5.60;;;3.38;;
36931;SDS011;22847;42.654;23.370;2023-05-07T13:27:27;5.43;;;3.00;;
36931;SDS011;22847;42.654;23.370;2023-05-07T13:29:52;12.20;;;3.20;;
36931;SDS011;22847;42.654;23.370;2023-05-07T13:32:18;4.50;;;3.08;;
36931;SDS011;22847;42.654;23.370;2023-05-07T13:34:43;10.05;;;3.08;;
36931;SDS011;22847;42.654;23.370;2023-05-07T13:37:08;6.20;;;2.92;;
36931;SDS011;22847;42.654;23.370;2023-05-07T13:39:34;4.07;;;3.15;;
36931;SDS011;22847;42.654;23.370;2023-05-07T13:42:00;7.05;;;2.45;;
36931;SDS011;22847;42.654;23.370;2023-05-07T13:44:25;10.95;;;3.10;;
36931;SDS011;22847;42.654;23.370;2023-05-07T13:46:51;4.07;;;2.67;;
36931;SDS011;22847;42.654;23.370;2023-05-07T13:49:17;4.80;;;2.78;;
36931;SDS011;22847;42.654;23.370;2023-05-07T13:51:42;3.45;;;3.15;;
36931;SDS011;22847;42.654;23.370;2023-05-07T13:54:07;5.20;;;3.22;;
36931;SDS011;22847;42.654;23.370;2023-05-07T13:56:33;4.90;;;3.55;;
36931;SDS011;22847;42.654;23.370;2023-05-07T13:58:58;4.22;;;3.17;;
36931;SDS011;22847;42.654;23.370;2023-05-07T14:01:24;3.78;;;3.10;;
36931;SDS011;22847;42.654;23.370;2023-05-07T14:03:49;5.32;;;3.40;;
36931;SDS011;22847;42.654;23.370;2023-05-07T14:06:15;5.75;;;3.10;;
36931;SDS011;22847;42.654;23.370;2023-05-07T14:08:40;5.47;;;3.70;;
36931;SDS011;22847;42.654;23.370;2023-05-07T14:11:05;7.25;;;2.80;;
36931;SDS011;22847;42.654;23.370;2023-05-07T14:13:31;6.97;;;3.15;;
36931;SDS011;22847;42.654;23.370;2023-05-07T14:15:57;6.80;;;3.00;;
36931;SDS011;22847;42.654;23.370;2023-05-07T14:18:23;4.20;;;3.20;;
36931;SDS011;22847;42.654;23.370;2023-05-07T14:20:48;4.38;;;2.97;;
36931;SDS011;22847;42.654;23.370;2023-05-07T14:23:14;4.88;;;2.90;;
36931;SDS011;22847;42.654;23.370;2023-05-07T14:25:40;5.88;;;4.13;;
36931;SDS011;22847;42.654;23.370;2023-05-07T14:28:06;3.95;;;2.83;;
36931;SDS011;22847;42.654;23.370;2023-05-07T14:30:31;7.03;;;5.13;;
36931;SDS011;22847;42.654;23.370;2023-05-07T14:32:57;5.18;;;3.70;;
36931;SDS011;22847;42.654;23.370;2023-05-07T14:35:22;16.17;;;9.50;;
36931;SDS011;22847;42.654;23.370;2023-05-07T14:37:48;18.00;;;11.75;;
36931;SDS011;22847;42.654;23.370;2023-05-07T14:40:13;13.20;;;7.82;;
36931;SDS011;22847;42.654;23.370;2023-05-07T14:42:39;16.42;;;10.32;;
36931;SDS011;22847;42.654;23.370;2023-05-07T14:45:05;12.85;;;6.05;;